Latest Weather Observations for Ouse

IDT60801

Issued at 5:35 pm EDT Thursday 23 October 2014 (issued every 30 minutes, with the page automatically refreshed every 10 minutes)

About weather observations | Map of weather stations | Latest weather observations for TAS | Other Formats
Station Details ID: 095048 Name: OUSE FIRE STATION Lat: -42.48 Lon: 146.71 Height: 90.0 m
Data from the previous 72 hours. | See also: Recent months at Ouse
Date/Time
EDT
Temp
°C
App
Temp
°C
Dew
Point
Rel
Hum
%
Delta-T
°C
Wind Press
QNH
hPa
Press
MSL
hPa
Rain
since 9 am
mm
Dir
 
Spd
km/h
Gust
km/h
Spd
kts
Gust
kts
23/05:30pm 18.2 13.9 7.9 51 5.3 SE 20 32 11 17 1022.3 1022.4 0.0
23/05:00pm 18.6 13.9 7.7 49 5.6 SSE 22 30 12 16 1022.2 1022.3 0.0
23/04:30pm 19.0 14.8 8.4 50 5.5 SSE 20 32 11 17 1022.2 1022.3 0.0
23/04:00pm 18.9 14.4 7.0 46 6.0 S 20 32 11 17 1022.4 1022.5 0.0
23/03:30pm 18.9 14.8 7.7 48 5.7 SSE 19 32 10 17 1022.6 1022.7 0.0
23/03:00pm 18.2 14.7 7.3 49 5.5 SE 15 22 8 12 1022.8 1022.9 0.0
23/02:30pm 18.0 14.0 6.5 47 5.7 SE 17 28 9 15 1023.2 1023.3 0.0
23/02:00pm 17.8 13.8 6.7 48 5.5 SSE 17 26 9 14 1023.4 1023.5 0.0
23/01:30pm 17.4 13.8 6.6 49 5.4 SE 15 28 8 15 1023.5 1023.6 0.0
23/01:00pm 16.9 13.4 7.0 52 4.9 SSE 15 24 8 13 1023.6 1023.7 0.0
23/12:30pm 16.5 13.6 6.3 51 5.0 ESE 11 19 6 10 1024.0 1024.1 0.0
23/12:00pm 16.1 12.7 6.0 51 4.9 E 13 20 7 11 1024.4 1024.5 0.0
23/11:30am 15.9 13.0 6.6 54 4.6 ESE 11 24 6 13 1024.7 1024.8 0.0
23/11:00am 14.6 11.1 5.4 54 4.3 SE 13 19 7 10 1025.2 1025.3 0.0
23/10:30am 13.9 10.8 5.5 57 4.0 SE 11 15 6 8 1025.4 1025.5 0.0
23/10:00am 12.5 9.8 5.7 63 3.2 SE 9 13 5 7 1025.7 1025.8 0.0
23/09:30am 13.0 9.6 5.9 62 3.4 SE 13 17 7 9 1025.6 1025.7 0.0
23/09:00am 12.0 7.8 5.9 66 2.9 SE 17 22 9 12 1025.4 1025.5 0.0
23/08:30am 10.8 6.6 5.8 71 2.3 SE 17 24 9 13 1025.4 1025.5 0.0
23/08:00am 10.5 6.8 6.5 76 1.9 SE 15 20 8 11 1025.1 1025.2 0.0
23/07:30am 9.9 7.1 7.0 82 1.4 SE 11 17 6 9 1024.6 1024.7 0.0
23/07:00am 8.7 6.7 7.3 91 0.7 S 7 9 4 5 1024.2 1024.3 0.0
23/06:30am 7.6 5.6 6.4 92 0.6 S 6 13 3 7 1023.6 1023.7 0.0
23/06:00am 8.1 4.5 6.6 90 0.7 S 15 19 8 10 1022.9 1023.0 0.0
23/05:30am 9.0 5.5 7.1 88 0.9 SSW 15 22 8 12 1022.3 1022.4 0.0
23/05:00am 9.3 7.0 7.4 88 0.9 S 9 15 5 8 1022.0 1022.1 0.0
23/04:00am 11.3 7.4 8.7 84 1.3 SSE 19 28 10 15 1020.9 1021.0 0.0
23/03:30am 11.5 9.1 8.7 83 1.4 SSE 11 17 6 9 1020.6 1020.7 0.0
23/03:00am 12.2 9.5 9.0 81 1.6 SE 13 19 7 10 1020.4 1020.5 0.0
23/02:30am 13.6 11.2 10.2 80 1.8 SE 13 20 7 11 1020.3 1020.4 0.0
23/02:00am 14.6 11.3 11.0 79 1.9 SE 19 26 10 14 1020.2 1020.3 0.0
23/01:30am 15.0 12.2 11.4 79 1.9 SE 17 26 9 14 1020.1 1020.2 0.0
23/01:00am 15.3 12.9 11.5 78 2.0 SSE 15 24 8 13 1019.7 1019.8 0.0
23/12:30am 15.2 14.7 12.1 82 1.7 SSE 6 7 3 4 1019.7 1019.8 0.0
23/12:00am 15.7 14.3 12.3 80 1.9 SE 11 15 6 8 1019.4 1019.4 0.0
 
Date/Time
EDT
Temp
°C
App
Temp
°C
Dew
Point
Rel
Hum
%
Delta-T
°C
Wind Press
QNH
hPa
Press
MSL
hPa
Rain
since 9 am
mm
Dir
 
Spd
km/h
Gust
km/h
Spd
kts
Gust
kts
22/11:30pm 14.6 14.0 11.6 82 1.6 S 6 7 3 4 1018.9 1018.9 0.0
22/11:00pm 14.9 15.4 11.7 81 1.7 CALM 0 0 0 0 1018.7 1018.7 0.0
22/10:30pm 16.0 16.6 11.8 76 2.3 CALM 0 0 0 0 1018.2 1018.2 0.0
22/10:00pm 16.8 14.0 11.5 71 2.9 SW 17 24 9 13 1018.1 1018.1 0.0
22/09:30pm 17.2 14.5 11.7 70 3.0 W 17 22 9 12 1017.7 1017.7 0.0
22/09:00pm 17.5 14.7 11.5 68 3.3 WSW 17 24 9 13 1017.2 1017.2 0.0
22/08:30pm 18.1 15.3 11.4 65 3.7 W 17 24 9 13 1016.6 1016.6 0.0
22/08:00pm 18.6 17.0 11.7 64 3.8 WNW 11 17 6 9 1015.6 1015.7 0.0
22/07:30pm 19.7 16.6 11.7 60 4.4 SW 19 26 10 14 1015.1 1015.2 0.0
22/07:00pm 21.0 17.1 12.2 57 5.0 W 24 33 13 18 1014.2 1014.3 0.0
22/06:30pm 22.6 18.0 12.3 52 5.9 SW 28 37 15 20 1013.7 1013.8 0.0
22/06:00pm 23.7 21.8 11.7 47 6.8 W 13 20 7 11 1013.0 1013.1 0.0
22/05:30pm 24.2 21.7 11.2 44 7.3 WSW 15 20 8 11 1013.2 1013.3 0.0
22/05:00pm 25.0 23.7 11.2 42 7.8 WNW 9 19 5 10 1013.2 1013.3 0.0
22/04:30pm 25.6 23.4 12.1 43 7.8 SW 15 20 8 11 1013.3 1013.4 0.0
22/04:00pm 25.4 24.6 11.2 41 8.0 E 6 15 3 8 1013.1 1013.2 0.0
22/03:30pm 25.3 24.2 10.7 40 8.2 SE 7 11 4 6 1013.0 1013.1 0.0
22/03:00pm 25.4 23.8 10.1 38 8.5 S 9 13 5 7 1013.3 1013.4 0.0
22/02:30pm 24.1 22.7 9.7 40 7.9 SSE 7 9 4 5 1013.3 1013.4 0.0
22/02:00pm 23.9 21.5 8.7 38 8.2 S 11 13 6 7 1014.0 1014.1 0.0
22/01:30pm 21.4 19.0 8.7 44 6.7 SE 11 15 6 8 1014.4 1014.5 0.0
22/01:00pm 20.8 18.9 9.1 47 6.2 SE 9 15 5 8 1014.9 1015.0 0.0
22/12:30pm 19.7 18.1 10.1 54 5.2 SE 9 11 5 6 1015.5 1015.6 0.0
22/12:00pm 18.3 16.2 8.3 52 5.2 ESE 9 13 5 7 1016.5 1016.5 0.0
22/11:30am 17.5 15.7 7.8 53 4.9 SE 7 11 4 6 1017.3 1017.3 0.0
22/11:00am 15.8 13.8 6.3 53 4.6 SE 6 9 3 5 1017.8 1017.8 0.0
22/10:30am 14.4 12.7 7.7 64 3.3 ESE 6 11 3 6 1018.7 1018.7 0.0
22/10:00am 13.1 11.2 6.9 66 3.0 S 6 9 3 5 1019.3 1019.3 0.0
22/09:30am 11.4 9.4 6.3 71 2.4 SE 6 9 3 5 1019.7 1019.8 0.0
22/09:00am 8.8 7.9 5.9 82 1.3 CALM 0 0 0 0 1019.9 1020.0 0.0
22/08:30am 6.4 5.6 6.3 99 0.0 CALM 0 0 0 0 1020.4 1020.5 0.0
22/08:00am 4.8 3.6 4.8 100 0.0 CALM 0 0 0 0 1020.4 1020.5 0.0
22/07:30am 4.0 2.7 4.0 100 0.0 CALM 0 0 0 0 1020.7 1020.8 0.0
22/07:00am 3.1 1.6 3.1 100 0.0 CALM 0 0 0 0 1021.0 1021.1 0.0
22/06:30am 1.5 -0.3 1.5 100 0.0 CALM 0 0 0 0 1021.0 1021.1 0.0
22/06:00am 1.1 -0.7 1.1 100 0.0 CALM 0 0 0 0 1021.2 1021.3 0.0
22/05:30am 1.1 -1.9 1.1 100 0.0 N 6 7 3 4 1021.4 1021.5 0.0
22/05:00am 1.2 -0.6 1.2 100 0.0 CALM 0 0 0 0 1021.7 1021.8 0.0
22/04:30am 1.7 0.0 1.6 99 0.0 CALM 0 0 0 0 1022.1 1022.2 0.0
22/04:00am 1.8 0.1 1.7 99 0.0 CALM 0 0 0 0 1022.5 1022.6 0.0
22/03:30am 2.0 0.3 1.7 98 0.1 CALM 0 0 0 0 1023.1 1023.2 0.0
22/03:00am 2.6 0.3 2.5 99 0.0 N 4 7 2 4 1023.4 1023.5 0.0
22/02:30am 3.2 1.7 3.1 99 0.0 CALM 0 6 0 3 1023.8 1023.9 0.0
22/02:00am 3.1 0.4 2.7 97 0.2 NNW 6 9 3 5 1024.2 1024.3 0.0
22/01:30am 3.7 1.1 3.0 95 0.3 NNE 6 7 3 4 1024.5 1024.6 0.0
22/01:00am 4.3 1.7 3.4 94 0.4 N 6 9 3 5 1024.7 1024.8 0.0
22/12:30am 5.0 3.7 4.0 93 0.4 CALM 0 0 0 0 1025.1 1025.2 0.0
22/12:00am 5.7 3.3 4.3 91 0.6 NW 6 7 3 4 1025.0 1025.1 0.0
 
Date/Time
EDT
Temp
°C
App
Temp
°C
Dew
Point
Rel
Hum
%
Delta-T
°C
Wind Press
QNH
hPa
Press
MSL
hPa
Rain
since 9 am
mm
Dir
 
Spd
km/h
Gust
km/h
Spd
kts
Gust
kts
21/11:30pm 6.5 4.0 4.8 89 0.7 NNW 7 9 4 5 1025.3 1025.4 0.0
21/11:00pm 7.3 4.6 5.4 88 0.8 NNE 9 11 5 6 1025.5 1025.6 0.0
21/10:30pm 8.1 5.6 5.0 81 1.4 NNW 7 9 4 5 1025.6 1025.7 0.0
21/10:00pm 10.4 8.4 6.2 75 1.9 NNW 6 9 3 5 1025.7 1025.8 0.0
21/09:30pm 11.5 9.9 6.4 71 2.4 SE 4 11 2 6 1025.5 1025.6 0.0
21/09:00pm 12.7 10.5 6.1 64 3.1 SSE 7 11 4 6 1025.6 1025.7 0.0
21/08:30pm 14.2 12.2 6.3 59 3.8 ESE 6 9 3 5 1025.3 1025.4 0.0
21/08:00pm 15.1 13.2 6.7 57 4.1 ENE 6 9 3 5 1025.2 1025.3 0.0
21/07:30pm 17.5 13.1 6.4 48 5.5 S 19 24 10 13 1025.0 1025.1 0.0
21/07:00pm 18.9 16.4 8.0 49 5.6 SE 11 17 6 9 1025.0 1025.1 0.0
21/06:30pm 20.0 17.5 8.4 47 6.1 SSE 11 15 6 8 1025.3 1025.4 0.0
21/06:00pm 20.9 17.2 7.9 43 6.7 S 17 22 9 12 1025.3 1025.4 0.0
21/05:30pm 21.1 17.3 7.7 42 7.0 S 17 22 9 12 1025.6 1025.7 0.0
21/05:00pm 21.2 17.4 7.4 41 7.1 S 17 22 9 12 1026.0 1026.1 0.0
21/04:30pm 21.0 17.2 7.6 42 6.9 SSE 17 22 9 12 1026.2 1026.3 0.0
21/04:00pm 20.9 17.4 7.2 41 7.0 S 15 20 8 11 1026.7 1026.8 0.0
21/03:30pm 20.2 16.9 8.2 46 6.3 S 15 20 8 11 1027.2 1027.3 0.0
21/03:00pm 20.2 17.2 7.9 45 6.3 S 13 20 7 11 1027.8 1027.8 0.0
21/02:30pm 19.9 16.9 7.9 46 6.2 S 13 20 7 11 1028.6 1028.6 0.0
21/02:00pm 19.0 15.2 7.4 47 5.9 S 17 20 9 11 1029.4 1029.5 0.0
21/01:30pm 18.0 15.4 7.7 51 5.2 SSE 11 19 6 10 1029.9 1030.0 0.0
21/01:00pm 16.7 13.4 6.5 51 5.0 SSE 13 22 7 12 1030.5 1030.6 0.0
21/12:30pm 16.0 13.4 6.2 52 4.8 SSE 9 15 5 8 1030.9 1031.0 0.0
21/12:00pm 14.5 11.8 5.6 55 4.2 SE 9 13 5 7 1031.4 1031.5 0.0
21/11:30am 13.6 11.1 6.5 62 3.4 SSE 9 13 5 7 1032.1 1032.2 0.0
21/11:00am 13.1 10.6 6.7 65 3.1 S 9 13 5 7 1032.6 1032.7 0.0
21/10:30am 10.7 8.4 5.7 71 2.3 SE 7 11 4 6 1033.1 1033.2 0.0
21/10:00am 9.8 7.5 5.6 75 1.9 SSE 7 11 4 6 1033.8 1033.9 0.0
21/09:30am 8.1 5.8 4.7 79 1.5 SE 6 9 3 5 1034.0 1034.1 0.0
21/09:00am 6.8 4.2 3.4 79 1.4 SE 6 11 3 6 1034.3 1034.4 0.0
21/08:30am 5.0 2.7 2.7 85 0.9 NE 4 7 2 4 1034.6 1034.7 0.0
21/08:00am 3.1 1.2 2.7 97 0.2 N 2 6 1 3 1034.6 1034.7 0.0
21/07:30am 1.5 -0.3 1.5 100 0.0 CALM 0 6 0 3 1034.6 1034.7 0.0
21/07:00am -0.5 -3.3 -0.5 100 0.0 N 4 7 2 4 1034.3 1034.4 0.0
21/06:30am -1.3 -3.8 -1.3 100 0.0 NNW 2 6 1 3 1034.2 1034.3 0.0
21/06:00am -0.9 -3.0 -0.9 100 0.0 CALM 0 0 0 0 1033.8 1033.9 0.0
21/05:30am -0.9 -3.0 -0.9 100 0.0 CALM 0 6 0 3 1033.6 1033.7 0.0
21/05:00am -0.8 -3.3 -0.9 99 0.0 NNW 2 7 1 4 1033.6 1033.7 0.0
21/04:30am -0.4 -2.8 -0.4 100 0.0 NNW 2 6 1 3 1033.5 1033.6 0.0
21/04:00am 0.5 -2.5 0.5 100 0.0 N 6 9 3 5 1033.3 1033.4 0.0
21/03:30am 0.6 -2.6 0.6 100 0.0 NNW 7 9 4 5 1033.5 1033.6 0.0
21/03:00am 0.1 -3.2 -0.2 98 0.1 N 7 9 4 5 1033.5 1033.6 0.0
21/02:30am 0.8 -2.3 0.4 97 0.1 NNW 6 7 3 4 1033.6 1033.7 0.0
21/02:00am 1.3 -1.7 0.6 95 0.3 N 6 7 3 4 1033.5 1033.6 0.0
21/01:30am 2.3 0.5 1.3 93 0.4 CALM 0 0 0 0 1033.6 1033.7 0.0
21/01:00am 3.0 0.5 1.5 90 0.6 SSE 4 6 2 3 1033.8 1033.9 0.0
21/12:30am 3.8 1.1 2.5 91 0.5 SSE 6 7 3 4 1034.2 1034.3 0.0
21/12:00am 4.3 2.3 2.5 88 0.7 S 2 9 1 5 1034.5 1034.6 0.0
 
Date/Time
EDT
Temp
°C
App
Temp
°C
Dew
Point
Rel
Hum
%
Delta-T
°C
Wind Press
QNH
hPa
Press
MSL
hPa
Rain
since 9 am
mm
Dir
 
Spd
km/h
Gust
km/h
Spd
kts
Gust
kts
20/11:30pm 4.7 1.8 2.4 85 0.9 S 7 9 4 5 1034.7 1034.8 0.0
20/11:00pm 5.3 2.0 2.7 83 1.1 S 9 11 5 6 1034.9 1035.0 0.0
20/10:30pm 6.3 3.0 2.6 77 1.5 SSE 9 9 5 5 1035.0 1035.1 0.0
20/10:00pm 7.5 4.3 3.2 74 1.8 SE 9 13 5 7 1035.1 1035.2 0.0
20/09:30pm 8.5 5.4 3.6 71 2.1 SE 9 15 5 8 1035.0 1035.1 0.0
20/09:00pm 9.4 4.2 3.6 67 2.5 SE 20 32 11 17 1034.4 1034.5 0.0
20/08:30pm 10.0 5.4 3.5 64 2.8 SSE 17 24 9 13 1033.5 1033.6 0.0
20/08:00pm 11.0 7.2 3.8 61 3.2 S 13 24 7 13 1032.5 1032.6 0.0
20/07:30pm 12.6 7.6 3.8 55 4.0 E 19 26 10 14 1032.0 1032.1 0.0
20/07:00pm 14.2 11.2 3.9 50 4.7 S 9 11 5 6 1031.7 1031.8 0.0
20/06:30pm 15.2 11.9 2.4 42 5.7 S 9 11 5 6 1031.6 1031.7 0.0
20/06:00pm 15.6 12.0 2.7 42 5.8 S 11 13 6 7 1031.6 1031.7 0.0

Other Formats:

Comma delimited format used in spreadsheet applications
http://www.bom.gov.au/fwo/IDT60801/IDT60801.94957.axf

JavaScript Object Notation format (JSON) in row-major order
http://www.bom.gov.au/fwo/IDT60801/IDT60801.94957.json